createdAt,value
2023-07-22T00:01:55.556Z,51.77
2023-07-22T00:04:23.456Z,52.17
2023-07-22T00:06:52.862Z,52.10
2023-07-22T00:09:21.276Z,52.20
2023-07-22T00:11:52.041Z,52.47
2023-07-22T00:14:20.188Z,51.93
2023-07-22T00:16:48.901Z,52.07
2023-07-22T00:19:18.553Z,52.33
2023-07-22T00:21:47.588Z,52.40
2023-07-22T00:24:16.893Z,52.10
2023-07-22T00:26:44.893Z,52.63
2023-07-22T00:29:12.820Z,52.47
2023-07-22T00:31:42.485Z,52.00
2023-07-22T00:34:10.534Z,51.97
2023-07-22T00:36:38.887Z,51.47
2023-07-22T00:39:06.943Z,52.07
2023-07-22T00:41:36.239Z,51.90
2023-07-22T00:44:04.262Z,52.03
2023-07-22T00:46:32.189Z,51.90
2023-07-22T00:49:00.526Z,51.93
2023-07-22T00:51:28.427Z,51.70
2023-07-22T00:53:57.742Z,51.73
2023-07-22T00:56:26.361Z,51.90
2023-07-22T00:58:55.855Z,51.90
2023-07-22T01:01:23.865Z,51.47
2023-07-22T01:03:51.957Z,51.60
2023-07-22T01:06:20.793Z,51.30
2023-07-22T01:08:48.731Z,52.23
2023-07-22T01:11:17.015Z,52.47
2023-07-22T01:13:45.080Z,52.33
2023-07-22T01:16:14.621Z,52.07
2023-07-22T01:18:42.897Z,52.37
2023-07-22T01:21:11.873Z,52.30
2023-07-22T01:23:41.938Z,52.37
2023-07-22T01:26:09.822Z,51.83
2023-07-22T01:28:37.935Z,52.50
2023-07-22T01:31:06.339Z,51.97
2023-07-22T01:33:34.766Z,52.30
2023-07-22T01:36:04.024Z,52.10
2023-07-22T01:38:32.182Z,52.03
2023-07-22T01:41:01.529Z,52.40
2023-07-22T01:43:29.451Z,52.30
2023-07-22T01:45:57.464Z,51.70
2023-07-22T01:48:26.301Z,51.93
2023-07-22T01:50:54.296Z,51.90
2023-07-22T01:53:22.865Z,51.87
2023-07-22T01:55:50.891Z,51.87
2023-07-22T01:58:20.274Z,52.37
2023-07-22T02:00:51.794Z,51.23
2023-07-22T02:03:19.909Z,51.93
2023-07-22T02:05:48.008Z,52.10
2023-07-22T02:08:16.012Z,52.43
2023-07-22T02:10:44.630Z,52.13
2023-07-22T02:13:12.582Z,51.83
2023-07-22T02:15:43.998Z,52.20
2023-07-22T02:18:11.919Z,52.53
2023-07-22T02:20:40.206Z,51.47
2023-07-22T02:23:10.363Z,52.37
2023-07-22T02:25:39.093Z,51.90
2023-07-22T02:28:07.247Z,51.27
2023-07-22T02:30:36.201Z,51.47
2023-07-22T02:33:07.321Z,52.00
2023-07-22T02:35:35.353Z,51.53
2023-07-22T02:38:03.670Z,51.20
2023-07-22T02:40:31.667Z,51.17
2023-07-22T02:42:59.566Z,51.90
2023-07-22T02:45:27.802Z,52.07
2023-07-22T02:47:55.806Z,51.80
2023-07-22T02:50:25.063Z,51.67
2023-07-22T02:52:53.071Z,51.13
2023-07-22T02:55:21.124Z,51.80
2023-07-22T02:57:50.006Z,51.60
2023-07-22T03:00:24.394Z,52.23
2023-07-22T03:02:53.559Z,52.30
2023-07-22T03:05:22.260Z,51.70
2023-07-22T03:07:51.623Z,52.07
2023-07-22T03:10:19.511Z,51.60
2023-07-22T03:12:47.409Z,51.77
2023-07-22T03:15:15.433Z,51.93
2023-07-22T03:17:44.004Z,50.63
2023-07-22T03:20:15.545Z,51.87
2023-07-22T03:22:43.886Z,51.17
2023-07-22T03:25:14.467Z,51.53
2023-07-22T03:27:42.603Z,51.17
2023-07-22T03:30:15.758Z,50.93
2023-07-22T03:32:44.325Z,51.47
2023-07-22T03:35:13.018Z,51.03
2023-07-22T03:37:41.464Z,51.87
2023-07-22T03:40:15.707Z,51.77
2023-07-22T03:42:44.983Z,51.37
2023-07-22T03:45:12.874Z,51.30
2023-07-22T03:47:41.416Z,51.80
2023-07-22T03:50:10.444Z,50.83
2023-07-22T03:52:38.356Z,51.53
2023-07-22T03:55:07.235Z,50.97
2023-07-22T03:57:36.667Z,51.63
2023-07-22T04:00:10.226Z,50.97
2023-07-22T04:02:40.956Z,51.43
2023-07-22T04:05:09.828Z,51.53
2023-07-22T04:07:37.945Z,51.53
2023-07-22T04:10:06.871Z,50.97
2023-07-22T04:12:34.799Z,51.33
2023-07-22T04:15:02.762Z,51.53
2023-07-22T04:17:32.371Z,51.77
2023-07-22T04:20:00.418Z,51.33
2023-07-22T04:22:28.377Z,51.60
2023-07-22T04:24:56.451Z,51.60
2023-07-22T04:27:24.405Z,51.67
2023-07-22T04:29:52.342Z,51.50
2023-07-22T04:32:20.284Z,51.70
2023-07-22T04:34:49.833Z,51.60
2023-07-22T04:37:18.718Z,51.70
2023-07-22T04:39:50.606Z,51.80
2023-07-22T04:42:18.753Z,51.90
2023-07-22T04:44:46.743Z,51.97
2023-07-22T04:47:14.703Z,51.77
2023-07-22T04:49:42.592Z,51.40
2023-07-22T04:52:11.878Z,51.93
2023-07-22T04:54:39.792Z,51.60
2023-07-22T04:57:10.990Z,51.67
2023-07-22T04:59:40.742Z,52.03
2023-07-22T05:02:08.619Z,51.53
2023-07-22T05:04:36.529Z,51.33
2023-07-22T05:07:04.703Z,51.57
2023-07-22T05:09:34.289Z,51.70
2023-07-22T05:12:24.756Z,52.03
2023-07-22T05:14:57.230Z,51.53
2023-07-22T05:17:27.027Z,51.43
2023-07-22T05:19:55.042Z,52.13
2023-07-22T05:22:23.005Z,51.53
2023-07-22T05:24:52.319Z,51.60
2023-07-22T05:27:21.891Z,51.67
2023-07-22T05:29:49.896Z,51.57
2023-07-22T05:32:33.149Z,52.00
2023-07-22T05:35:02.743Z,51.63
2023-07-22T05:37:43.825Z,51.43
2023-07-22T05:40:31.898Z,52.03
2023-07-22T05:43:05.205Z,51.50
2023-07-22T05:45:43.037Z,51.87
2023-07-22T05:48:19.481Z,51.63
2023-07-22T05:51:00.965Z,51.73
2023-07-22T05:53:28.978Z,51.23
2023-07-22T05:55:58.348Z,52.43
2023-07-22T05:58:26.313Z,51.97
2023-07-22T06:00:56.375Z,52.43
2023-07-22T06:03:24.585Z,51.60
2023-07-22T06:05:55.474Z,52.27
2023-07-22T06:08:24.354Z,51.97
2023-07-22T06:10:56.415Z,51.90
2023-07-22T06:13:30.117Z,52.10
2023-07-22T06:16:06.514Z,52.40
2023-07-22T06:18:34.499Z,52.30
2023-07-22T06:21:03.241Z,52.97
2023-07-22T06:23:32.227Z,52.40
2023-07-22T06:26:02.128Z,52.80
2023-07-22T06:28:32.369Z,52.70
2023-07-22T06:31:00.383Z,52.93
2023-07-22T06:33:29.070Z,53.17
2023-07-22T06:36:28.590Z,52.47
2023-07-22T06:39:00.583Z,52.77
2023-07-22T06:41:34.324Z,52.63
2023-07-22T06:44:27.618Z,52.70
2023-07-22T06:46:58.092Z,52.90
2023-07-22T06:49:26.389Z,52.77
2023-07-22T06:52:02.028Z,53.27
2023-07-22T06:54:38.582Z,52.73
2023-07-22T06:57:15.036Z,52.53
2023-07-22T06:59:46.847Z,52.63
2023-07-22T07:02:18.615Z,53.20
2023-07-22T07:04:56.594Z,53.13
2023-07-22T07:07:25.123Z,53.20
2023-07-22T07:09:53.276Z,52.60
2023-07-22T07:12:21.339Z,53.20
2023-07-22T07:14:52.392Z,53.37
2023-07-22T07:17:20.373Z,53.10
2023-07-22T07:19:48.277Z,52.53
2023-07-22T07:22:16.172Z,53.03
2023-07-22T07:24:44.213Z,53.60
2023-07-22T07:27:12.108Z,53.37
2023-07-22T07:29:53.517Z,53.40
2023-07-22T07:32:25.108Z,53.30
2023-07-22T07:34:53.125Z,53.53
2023-07-22T07:37:20.995Z,53.03
2023-07-22T07:39:48.926Z,52.43
2023-07-22T07:42:16.830Z,53.70
2023-07-22T07:44:44.888Z,53.23
2023-07-22T07:47:12.809Z,52.80
2023-07-22T07:49:42.400Z,53.20
2023-07-22T07:52:10.330Z,53.20
2023-07-22T07:54:38.325Z,52.93
2023-07-22T07:57:08.172Z,53.30
2023-07-22T07:59:38.651Z,53.40
2023-07-22T08:02:10.434Z,53.27
2023-07-22T08:04:38.541Z,53.63
2023-07-22T08:07:08.720Z,53.30
2023-07-22T08:09:36.725Z,53.47
2023-07-22T08:12:05.421Z,53.70
2023-07-22T08:14:33.463Z,53.80
2023-07-22T08:17:01.418Z,54.17
2023-07-22T08:19:29.348Z,54.17
2023-07-22T08:21:57.584Z,53.77
2023-07-22T08:24:26.892Z,53.77
2023-07-22T08:26:56.447Z,54.30
2023-07-22T08:29:24.417Z,54.70
2023-07-22T08:31:52.489Z,54.77
2023-07-22T08:34:20.435Z,54.80
2023-07-22T08:36:48.359Z,54.10
2023-07-22T08:39:16.294Z,55.20
2023-07-22T08:41:51.271Z,55.40
2023-07-22T08:44:24.782Z,55.17
2023-07-22T08:46:58.380Z,54.90
2023-07-22T08:49:27.691Z,55.07
2023-07-22T08:51:57.819Z,55.60
2023-07-22T08:54:26.245Z,54.20
2023-07-22T08:56:56.020Z,55.33
2023-07-22T08:59:24.008Z,55.30
2023-07-22T09:01:52.945Z,55.00
2023-07-22T09:04:21.474Z,54.90
2023-07-22T09:06:50.070Z,55.07
2023-07-22T09:09:18.771Z,55.53
2023-07-22T09:11:49.123Z,55.20
2023-07-22T09:14:35.747Z,55.17
2023-07-22T09:17:05.583Z,54.90
2023-07-22T09:19:33.766Z,54.13
2023-07-22T09:22:01.714Z,54.80
2023-07-22T09:24:30.476Z,54.53
2023-07-22T09:26:59.994Z,54.37
2023-07-22T09:29:41.156Z,54.33
2023-07-22T09:32:09.562Z,54.07
2023-07-22T09:34:37.464Z,54.47
2023-07-22T09:37:06.343Z,54.40
2023-07-22T09:39:35.281Z,54.30
2023-07-22T09:42:04.621Z,54.57
2023-07-22T09:44:34.284Z,54.33
2023-07-22T09:47:10.425Z,54.43
2023-07-22T09:49:42.623Z,54.70
2023-07-22T09:52:13.382Z,54.63
2023-07-22T09:54:50.248Z,54.47
2023-07-22T09:57:18.854Z,54.77
2023-07-22T09:59:47.488Z,54.60
2023-07-22T10:02:21.196Z,54.53
2023-07-22T10:04:51.007Z,54.23
2023-07-22T10:07:20.205Z,54.57
2023-07-22T10:09:49.019Z,54.73
2023-07-22T10:12:16.951Z,53.77
2023-07-22T10:14:45.968Z,54.17
2023-07-22T10:17:15.116Z,54.43
2023-07-22T10:19:45.261Z,54.47
2023-07-22T10:22:13.721Z,54.30
2023-07-22T10:24:42.864Z,53.97
2023-07-22T10:27:11.351Z,53.77
2023-07-22T10:29:40.408Z,54.00
2023-07-22T10:32:08.803Z,54.33
2023-07-22T10:34:36.752Z,54.20
2023-07-22T10:37:06.339Z,53.73
2023-07-22T10:39:34.345Z,54.23
2023-07-22T10:42:06.522Z,54.20
2023-07-22T10:44:35.126Z,54.20
2023-07-22T10:47:04.759Z,54.27
2023-07-22T10:49:46.215Z,53.47
2023-07-22T10:52:16.190Z,54.47
2023-07-22T10:54:44.336Z,54.60
2023-07-22T10:57:27.625Z,55.00
2023-07-22T10:59:58.369Z,54.17
2023-07-22T11:02:26.523Z,55.00
2023-07-22T11:04:56.724Z,54.67
2023-07-22T11:07:36.644Z,54.53
2023-07-22T11:10:17.148Z,55.03
2023-07-22T11:12:46.318Z,54.80
2023-07-22T11:15:17.323Z,54.23
2023-07-22T11:17:45.347Z,55.17
2023-07-22T11:20:13.453Z,54.87
2023-07-22T11:22:44.485Z,55.00
2023-07-22T11:25:19.496Z,54.57
2023-07-22T11:27:48.021Z,54.90
2023-07-22T11:30:16.110Z,54.63
2023-07-22T11:32:45.576Z,55.13
2023-07-22T11:35:13.500Z,54.87
2023-07-22T11:37:43.152Z,54.23
2023-07-22T11:40:14.366Z,54.30
2023-07-22T11:42:42.306Z,54.50
2023-07-22T11:45:11.421Z,54.80
2023-07-22T11:47:39.818Z,54.70
2023-07-22T11:50:08.757Z,54.30
2023-07-22T11:52:36.683Z,55.33
2023-07-22T11:55:06.684Z,54.90
2023-07-22T11:57:34.613Z,54.70
2023-07-22T12:00:02.666Z,54.70
2023-07-22T12:02:38.143Z,54.53
2023-07-22T12:05:07.384Z,54.20
2023-07-22T12:07:36.763Z,54.00
2023-07-22T12:10:07.778Z,54.20
2023-07-22T12:12:35.994Z,53.97
2023-07-22T12:15:06.492Z,54.50
2023-07-22T12:17:49.775Z,54.57
2023-07-22T12:20:19.878Z,54.20
2023-07-22T12:22:47.788Z,54.10
2023-07-22T12:25:17.103Z,54.20
2023-07-22T12:27:46.334Z,54.20
2023-07-22T12:30:15.608Z,54.73
2023-07-22T12:32:44.921Z,54.87
2023-07-22T12:35:14.678Z,54.70
2023-07-22T12:37:42.591Z,54.77
2023-07-22T12:40:13.601Z,54.50
2023-07-22T12:42:43.161Z,54.80
2023-07-22T12:45:11.547Z,54.90
2023-07-22T12:47:39.438Z,55.00
2023-07-22T12:50:09.574Z,55.17
2023-07-22T12:52:37.677Z,54.97
2023-07-22T12:55:06.229Z,55.27
2023-07-22T12:57:34.207Z,54.40
2023-07-22T13:00:07.056Z,54.93
2023-07-22T13:02:35.017Z,55.00
2023-07-22T13:05:03.047Z,54.80
2023-07-22T13:07:30.927Z,54.53
2023-07-22T13:10:01.394Z,54.43
2023-07-22T13:12:29.392Z,54.37
2023-07-22T13:14:58.340Z,54.60
2023-07-22T13:17:27.843Z,54.50
2023-07-22T13:19:55.766Z,53.47
2023-07-22T13:22:23.657Z,53.67
2023-07-22T13:24:51.534Z,53.97
2023-07-22T13:27:19.456Z,53.77
2023-07-22T13:29:47.613Z,55.17
2023-07-22T13:32:15.518Z,54.87
2023-07-22T13:34:44.742Z,54.80
2023-07-22T13:37:12.809Z,55.00
2023-07-22T13:39:40.726Z,54.90
2023-07-22T13:42:08.894Z,54.77
2023-07-22T13:44:39.376Z,54.13
2023-07-22T13:47:08.641Z,55.00
2023-07-22T13:49:36.551Z,54.63
2023-07-22T13:52:06.358Z,55.37
2023-07-22T13:54:34.226Z,54.47
2023-07-22T13:57:02.185Z,54.80
2023-07-22T13:59:32.268Z,54.70
2023-07-22T14:02:00.258Z,54.80
2023-07-22T14:04:28.250Z,55.07
2023-07-22T14:06:56.111Z,55.23
2023-07-22T14:09:27.855Z,55.03
2023-07-22T14:11:55.812Z,54.77
2023-07-22T14:14:29.350Z,54.80
2023-07-22T14:16:57.620Z,55.00
2023-07-22T14:19:26.628Z,55.03
2023-07-22T14:21:54.530Z,54.50
2023-07-22T14:24:22.452Z,55.20
2023-07-22T14:26:51.742Z,54.93
2023-07-22T14:29:19.643Z,54.50
2023-07-22T14:31:47.775Z,55.47
2023-07-22T14:34:15.755Z,54.80
2023-07-22T14:36:45.912Z,54.70
2023-07-22T14:39:21.765Z,55.03
2023-07-22T14:41:52.742Z,54.47
2023-07-22T14:44:26.138Z,54.60
2023-07-22T14:46:54.701Z,55.00
2023-07-22T14:49:22.662Z,55.10
2023-07-22T14:51:50.567Z,54.63
2023-07-22T14:54:19.776Z,54.37
2023-07-22T14:56:47.679Z,55.63
2023-07-22T14:59:17.883Z,55.10
2023-07-22T15:01:45.877Z,55.30
2023-07-22T15:04:13.803Z,55.00
2023-07-22T15:06:41.676Z,55.10
2023-07-22T15:09:09.800Z,55.67
2023-07-22T15:11:38.608Z,54.57
2023-07-22T15:14:06.856Z,55.47
2023-07-22T15:16:36.457Z,55.23
2023-07-22T15:19:04.397Z,53.67
2023-07-22T15:21:32.311Z,54.33
2023-07-22T15:24:00.426Z,54.90
2023-07-22T15:26:28.317Z,54.77
2023-07-22T15:28:56.230Z,54.97
2023-07-22T15:31:24.314Z,54.73
2023-07-22T15:33:53.560Z,54.63
2023-07-22T15:36:21.502Z,55.13
2023-07-22T15:38:49.414Z,54.57
2023-07-22T15:41:17.384Z,54.97
2023-07-22T15:43:45.360Z,54.90
2023-07-22T15:46:13.369Z,54.50
2023-07-22T15:48:41.254Z,54.77
2023-07-22T15:51:10.489Z,54.27
2023-07-22T15:53:38.522Z,54.77
2023-07-22T15:56:06.572Z,55.50
2023-07-22T15:58:35.667Z,54.90
2023-07-22T16:01:03.697Z,55.10
2023-07-22T16:03:32.516Z,54.80
2023-07-22T16:06:00.490Z,55.37
2023-07-22T16:08:33.169Z,55.03
2023-07-22T16:11:01.120Z,54.63
2023-07-22T16:13:29.030Z,54.00
2023-07-22T16:15:57.087Z,54.93
2023-07-22T16:18:24.985Z,54.20
2023-07-22T16:20:52.917Z,54.27
2023-07-22T16:23:20.900Z,55.17
2023-07-22T16:25:50.175Z,54.70
2023-07-22T16:28:18.074Z,54.60
2023-07-22T16:30:45.961Z,54.50
2023-07-22T16:33:14.198Z,54.97
2023-07-22T16:35:42.229Z,54.07
2023-07-22T16:38:10.431Z,55.03
2023-07-22T16:40:38.384Z,54.80
2023-07-22T16:43:07.645Z,55.63
2023-07-22T16:45:35.587Z,55.17
2023-07-22T16:48:03.690Z,54.80
2023-07-22T16:50:32.815Z,54.93
2023-07-22T16:53:03.864Z,54.90
2023-07-22T16:55:31.833Z,54.67
2023-07-22T16:57:59.748Z,55.23
2023-07-22T17:00:31.369Z,54.90
2023-07-22T17:02:59.483Z,54.67
2023-07-22T17:05:27.430Z,54.70
2023-07-22T17:07:55.306Z,54.60
2023-07-22T17:10:23.211Z,54.63
2023-07-22T17:12:51.133Z,54.63
2023-07-22T17:15:19.036Z,55.13
2023-07-22T17:17:48.276Z,54.67
2023-07-22T17:20:16.705Z,54.37
2023-07-22T17:22:44.600Z,55.07
2023-07-22T17:25:13.013Z,55.40
2023-07-22T17:27:40.921Z,55.17
2023-07-22T17:30:09.859Z,54.60
2023-07-22T17:32:37.826Z,54.80
2023-07-22T17:35:08.158Z,54.87
2023-07-22T17:37:36.073Z,54.83
2023-07-22T17:40:04.204Z,54.70
2023-07-22T17:42:32.148Z,54.53
2023-07-22T17:45:00.051Z,55.10
2023-07-22T17:47:28.120Z,54.33
2023-07-22T17:49:56.550Z,55.13
2023-07-22T17:52:25.941Z,55.07
2023-07-22T17:54:53.867Z,54.40
2023-07-22T17:57:21.801Z,54.80
2023-07-22T17:59:50.814Z,54.50
2023-07-22T18:02:19.065Z,54.63
2023-07-22T18:04:49.505Z,55.30
2023-07-22T18:07:17.523Z,54.83
2023-07-22T18:09:46.766Z,54.47
2023-07-22T18:12:17.232Z,54.43
2023-07-22T18:14:45.176Z,54.80
2023-07-22T18:17:13.187Z,54.37
2023-07-22T18:19:41.293Z,55.30
2023-07-22T18:22:09.326Z,54.27
2023-07-22T18:24:37.348Z,54.90
2023-07-22T18:27:07.532Z,53.87
2023-07-22T18:29:35.480Z,54.37
2023-07-22T18:32:03.407Z,54.70
2023-07-22T18:34:31.484Z,54.50
2023-07-22T18:36:59.512Z,54.57
2023-07-22T18:39:27.435Z,54.60
2023-07-22T18:41:55.375Z,54.77
2023-07-22T18:44:24.618Z,54.23
2023-07-22T18:46:52.578Z,54.30
2023-07-22T18:49:20.547Z,54.20
2023-07-22T18:51:48.417Z,54.17
2023-07-22T18:54:16.323Z,54.47
2023-07-22T18:56:44.333Z,54.57
2023-07-22T18:59:12.280Z,54.37
2023-07-22T19:01:41.563Z,53.87
2023-07-22T19:04:09.487Z,54.13
2023-07-22T19:06:37.434Z,54.40
2023-07-22T19:09:05.412Z,54.40
2023-07-22T19:11:33.448Z,54.23
2023-07-22T19:14:01.378Z,54.93
2023-07-22T19:16:29.445Z,54.20
2023-07-22T19:18:58.832Z,54.50
2023-07-22T19:21:26.884Z,54.37
2023-07-22T19:23:54.960Z,54.67
2023-07-22T19:26:22.903Z,54.37
2023-07-22T19:28:50.844Z,54.30
2023-07-22T19:31:18.873Z,54.03
2023-07-22T19:33:46.823Z,54.67
2023-07-22T19:36:16.073Z,54.00
2023-07-22T19:38:44.898Z,54.20
2023-07-22T19:41:13.936Z,53.73
2023-07-22T19:43:43.105Z,54.20
2023-07-22T19:46:12.908Z,54.40
2023-07-22T19:48:41.791Z,54.10
2023-07-22T19:51:11.795Z,53.87
2023-07-22T19:53:41.044Z,53.77
2023-07-22T19:56:10.197Z,53.50
2023-07-22T19:58:41.083Z,53.50
2023-07-22T20:01:09.786Z,53.70
2023-07-22T20:03:42.764Z,53.63
2023-07-22T20:06:23.482Z,53.87
2023-07-22T20:09:05.123Z,52.97
2023-07-22T20:11:39.668Z,53.77
2023-07-22T20:14:09.610Z,53.50
2023-07-22T20:16:37.596Z,53.83
2023-07-22T20:19:05.641Z,53.50
2023-07-22T20:21:33.570Z,53.43
2023-07-22T20:24:02.850Z,53.70
2023-07-22T20:26:30.719Z,53.50
2023-07-22T20:28:58.699Z,53.07
2023-07-22T20:31:26.868Z,53.10
2023-07-22T20:33:54.986Z,53.10
2023-07-22T20:36:22.894Z,53.57
2023-07-22T20:38:50.781Z,53.30
2023-07-22T20:41:20.061Z,53.30
2023-07-22T20:43:47.960Z,53.00
2023-07-22T20:46:15.948Z,53.00
2023-07-22T20:48:43.898Z,53.13
2023-07-22T20:51:14.849Z,53.23
2023-07-22T20:53:42.731Z,53.43
2023-07-22T20:56:10.678Z,53.50
2023-07-22T20:58:39.938Z,52.60
2023-07-22T21:01:07.891Z,52.60
2023-07-22T21:03:35.805Z,53.07
2023-07-22T21:06:03.814Z,53.47
2023-07-22T21:08:31.743Z,53.57
2023-07-22T21:11:01.627Z,53.17
2023-07-22T21:13:31.409Z,52.80
2023-07-22T21:16:00.812Z,52.73
2023-07-22T21:18:28.826Z,53.27
2023-07-22T21:20:56.756Z,52.70
2023-07-22T21:23:24.695Z,53.37
2023-07-22T21:25:56.500Z,53.43
2023-07-22T21:28:24.395Z,52.90
2023-07-22T21:30:52.322Z,53.17
2023-07-22T21:33:21.977Z,52.90
2023-07-22T21:35:50.031Z,52.23
2023-07-22T21:38:17.964Z,52.83
2023-07-22T21:40:50.532Z,52.73
2023-07-22T21:43:18.425Z,53.00
2023-07-22T21:45:47.548Z,53.10
2023-07-22T21:48:15.694Z,52.57
2023-07-22T21:50:44.946Z,53.07
2023-07-22T21:53:12.987Z,53.13
2023-07-22T21:55:40.906Z,52.67
2023-07-22T21:58:09.194Z,53.03
2023-07-22T22:00:37.289Z,52.60
2023-07-22T22:03:06.746Z,52.60
2023-07-22T22:05:34.656Z,52.87
2023-07-22T22:08:03.925Z,52.67
2023-07-22T22:10:32.463Z,52.93
2023-07-22T22:13:00.597Z,53.17
2023-07-22T22:15:28.629Z,52.40
2023-07-22T22:18:00.381Z,52.60
2023-07-22T22:20:28.978Z,52.80
2023-07-22T22:22:56.940Z,52.60
2023-07-22T22:25:26.178Z,52.17
2023-07-22T22:27:54.063Z,52.87
2023-07-22T22:30:22.269Z,53.27
2023-07-22T22:32:53.001Z,52.77
2023-07-22T22:35:21.476Z,52.13
2023-07-22T22:37:49.433Z,52.10
2023-07-22T22:40:17.422Z,52.40
2023-07-22T22:42:46.701Z,52.57
2023-07-22T22:45:15.081Z,51.63
2023-07-22T22:47:43.767Z,52.30
2023-07-22T22:50:11.945Z,52.23
2023-07-22T22:52:39.831Z,51.93
2023-07-22T22:55:08.311Z,51.37
2023-07-22T22:57:36.249Z,52.37
2023-07-22T23:00:06.840Z,52.30
2023-07-22T23:02:35.840Z,52.50
2023-07-22T23:05:03.924Z,52.37
2023-07-22T23:07:32.070Z,52.43
2023-07-22T23:10:00.084Z,52.40
2023-07-22T23:12:28.019Z,51.87
2023-07-22T23:14:55.932Z,52.50
2023-07-22T23:17:25.162Z,51.83
2023-07-22T23:19:53.054Z,52.23
2023-07-22T23:22:20.938Z,51.80
2023-07-22T23:24:48.908Z,52.07
2023-07-22T23:27:16.901Z,51.97
2023-07-22T23:29:45.107Z,52.10
2023-07-22T23:32:13.057Z,52.30
2023-07-22T23:34:42.331Z,52.03
2023-07-22T23:37:10.306Z,51.63
2023-07-22T23:39:38.168Z,51.87
2023-07-22T23:42:06.444Z,51.70
2023-07-22T23:44:34.403Z,51.50
2023-07-22T23:47:02.262Z,51.90
2023-07-22T23:49:30.128Z,51.50
2023-07-22T23:51:59.381Z,51.63
2023-07-22T23:54:27.295Z,51.53
2023-07-22T23:56:55.234Z,51.67
2023-07-22T23:59:23.114Z,51.60
